Time;durP1;ratioP1;P1;durP2;ratioP2;P2;SDS_P1;SDS_P2;PMS_P1;PMS_P2;Temp;Humidity;BMP_temperature;BMP_pressure;BME280_temperature;BME280_humidity;BME280_pressure;Samples;Min_cycle;Max_cycle;Signal;HPM_P1;HPM_P2
2021/12/31 00:00:13;;;;;;;9.80;6.93;;;;;;;12.74;100.00;101158.72;6156174;23;20017;-89
2021/12/31 00:02:39;;;;;;;12.38;8.15;;;;;;;12.74;100.00;101162.25;6182912;23;20020;-88
2021/12/31 00:05:05;;;;;;;13.27;7.95;;;;;;;12.73;100.00;101163.25;6208283;23;20013;-87
2021/12/31 00:07:30;;;;;;;12.60;8.23;;;;;;;12.73;100.00;101152.50;6208603;23;20017;-88
2021/12/31 00:10:00;;;;;;;10.18;7.30;;;;;;;12.72;100.00;101152.69;6132517;23;20347;-88
2021/12/31 00:12:28;;;;;;;12.07;7.18;;;;;;;12.72;100.00;101161.59;6207108;23;20012;-88
2021/12/31 00:14:55;;;;;;;11.23;7.93;;;;;;;12.70;100.00;101152.81;6182439;23;20353;-88
2021/12/31 00:17:20;;;;;;;11.10;6.50;;;;;;;12.68;100.00;101144.06;6182036;23;20043;-88
2021/12/31 00:19:47;;;;;;;13.75;6.97;;;;;;;12.69;100.00;101148.47;6209875;23;20012;-87
2021/12/31 00:24:57;;;;;;;11.48;6.40;;;;;;;12.68;100.00;101143.25;6204139;23;20028;-88
2021/12/31 00:27:22;;;;;;;11.88;6.82;;;;;;;12.68;100.00;101144.06;6203308;23;20387;-89
2021/12/31 00:29:48;;;;;;;10.63;6.50;;;;;;;12.69;100.00;101152.97;6177593;23;20474;-87
2021/12/31 00:32:13;;;;;;;12.85;6.50;;;;;;;12.68;100.00;101149.47;6202358;23;20027;-88
2021/12/31 00:34:39;;;;;;;10.93;6.07;;;;;;;12.67;100.00;101146.94;6152770;23;20009;-88
2021/12/31 00:37:04;;;;;;;9.95;6.60;;;;;;;12.65;100.00;101144.41;6201711;23;20466;-88
2021/12/31 00:39:30;;;;;;;11.40;6.03;;;;;;;12.62;100.00;101148.28;6152614;23;20013;-88
2021/12/31 00:41:55;;;;;;;12.98;7.00;;;;;;;12.59;100.00;101155.84;6179356;23;20025;-88
2021/12/31 00:44:20;;;;;;;14.13;6.43;;;;;;;12.60;100.00;101152.16;6150866;23;20711;-89
2021/12/31 00:46:47;;;;;;;10.63;6.18;;;;;;;12.56;100.00;101153.50;6205531;23;20044;-88
2021/12/31 00:49:14;;;;;;;14.77;6.90;;;;;;;12.53;100.00;101149.28;6176451;23;20012;-88
2021/12/31 00:51:41;;;;;;;11.80;5.80;;;;;;;12.54;100.00;101159.03;6175796;23;20016;-88
2021/12/31 00:54:06;;;;;;;11.55;6.05;;;;;;;12.52;100.00;101158.41;6149453;23;20036;-87
2021/12/31 00:56:32;;;;;;;10.52;5.50;;;;;;;12.48;100.00;101159.72;6202528;23;20016;-87
2021/12/31 00:58:58;;;;;;;13.80;6.45;;;;;;;12.48;100.00;101153.50;6204721;23;20012;-87
2021/12/31 01:01:25;;;;;;;10.23;5.82;;;;;;;12.47;100.00;101168.81;6178724;23;20031;-87
2021/12/31 01:03:53;;;;;;;12.10;6.78;;;;;;;12.44;100.00;101155.69;6209325;23;20470;-88
2021/12/31 01:06:19;;;;;;;11.10;6.40;;;;;;;12.45;100.00;101178.06;6176923;23;20349;-88
2021/12/31 01:08:44;;;;;;;12.43;6.60;;;;;;;12.44;100.00;101173.69;6194108;23;20192;-87
2021/12/31 01:11:10;;;;;;;11.88;6.13;;;;;;;12.44;100.00;101173.69;6152380;23;20021;-88
2021/12/31 01:13:47;;;;;;;9.63;5.78;;;;;;;12.44;100.00;101179.09;6204626;23;20017;-88
2021/12/31 01:16:12;;;;;;;11.20;5.90;;;;;;;12.45;100.00;101172.69;6202985;23;20410;-87
2021/12/31 01:21:22;;;;;;;13.88;5.30;;;;;;;12.45;100.00;101180.75;6204047;23;20044;-87
2021/12/31 01:23:48;;;;;;;9.65;5.18;;;;;;;12.44;100.00;101168.31;6203374;23;20333;-87
2021/12/31 01:26:14;;;;;;;10.40;4.88;;;;;;;12.46;100.00;101183.28;6177327;23;20017;-87
2021/12/31 01:28:41;;;;;;;8.25;4.07;;;;;;;12.48;100.00;101170.50;6154659;23;20024;-87
2021/12/31 01:31:07;;;;;;;9.32;4.65;;;;;;;12.49;100.00;101169.50;6175373;23;20581;-89
2021/12/31 01:33:34;;;;;;;9.70;4.40;;;;;;;12.51;100.00;101180.09;6178266;23;20116;-87
2021/12/31 01:35:59;;;;;;;10.60;4.20;;;;;;;12.51;100.00;101178.22;6204316;23;20009;-86
2021/12/31 01:38:25;;;;;;;9.00;3.97;;;;;;;12.56;100.00;101188.50;6177895;23;20722;-87
2021/12/31 01:40:52;;;;;;;6.95;3.92;;;;;;;12.57;100.00;101176.72;6179126;23;20387;-89
2021/12/31 01:43:19;;;;;;;10.10;4.10;;;;;;;12.60;100.00;101188.00;6177514;23;20079;-87
2021/12/31 01:45:55;;;;;;;7.47;3.70;;;;;;;12.61;100.00;101168.16;6204675;23;20092;-88
2021/12/31 01:48:24;;;;;;;7.88;3.65;;;;;;;12.62;100.00;101177.91;6153741;23;20021;-88
2021/12/31 01:50:50;;;;;;;8.70;3.95;;;;;;;12.65;100.00;101174.88;6178166;23;20020;-88
2021/12/31 01:53:16;;;;;;;9.32;3.80;;;;;;;12.67;100.00;101185.47;6153069;23;20050;-87
2021/12/31 01:55:42;;;;;;;7.05;3.67;;;;;;;12.70;100.00;101179.75;6206058;23;20024;-87
2021/12/31 01:58:09;;;;;;;7.82;3.35;;;;;;;12.71;100.00;101175.22;6153962;23;20020;-87
2021/12/31 02:00:36;;;;;;;7.22;3.10;;;;;;;12.73;100.00;101192.88;6178065;23;20032;-87
2021/12/31 02:03:03;;;;;;;7.25;3.60;;;;;;;12.77;100.00;101179.91;6178977;23;20024;-88
2021/12/31 02:05:29;;;;;;;7.43;2.85;;;;;;;12.79;100.00;101180.59;6177632;23;20094;-88
2021/12/31 02:07:54;;;;;;;6.35;2.65;;;;;;;12.82;100.00;101185.63;6178152;23;20063;-87
2021/12/31 02:10:20;;;;;;;6.75;2.95;;;;;;;12.82;100.00;101164.09;6204771;23;20021;-87
2021/12/31 02:12:46;;;;;;;5.55;2.50;;;;;;;12.87;100.00;101196.75;6203395;23;20012;-88
2021/12/31 02:15:16;;;;;;;6.63;2.88;;;;;;;12.85;100.00;101196.91;6176998;23;20021;-88
2021/12/31 02:17:44;;;;;;;5.82;2.95;;;;;;;12.84;100.00;101192.53;6179419;23;20099;-87
2021/12/31 02:20:10;;;;;;;7.15;2.42;;;;;;;12.85;100.00;101188.81;6175855;23;20459;-88
2021/12/31 02:22:43;;;;;;;5.35;3.00;;;;;;;12.84;100.00;101205.19;6178230;23;20023;-87
2021/12/31 02:25:10;;;;;;;6.05;2.58;;;;;;;12.84;100.00;101199.78;6178007;23;20067;-88
2021/12/31 02:27:38;;;;;;;4.95;3.00;;;;;;;12.81;100.00;101184.81;6167101;23;20446;-88
2021/12/31 02:30:05;;;;;;;6.03;2.50;;;;;;;12.81;100.00;101195.56;6149409;23;20099;-87
2021/12/31 02:32:31;;;;;;;7.30;3.08;;;;;;;12.81;100.00;101198.28;6206254;23;20020;-88
2021/12/31 02:34:58;;;;;;;5.95;2.60;;;;;;;12.84;100.00;101189.00;6205210;23;20036;-87
2021/12/31 02:37:24;;;;;;;6.10;2.50;;;;;;;12.83;100.00;101187.31;6198593;23;20039;-88
2021/12/31 02:39:51;;;;;;;7.18;2.42;;;;;;;12.83;100.00;101190.88;6206616;23;20027;-88
2021/12/31 02:42:16;;;;;;;6.45;2.60;;;;;;;12.81;100.00;101175.88;6174202;23;20347;-87
2021/12/31 02:44:43;;;;;;;6.93;2.65;;;;;;;12.82;100.00;101188.34;6169082;23;20127;-87
2021/12/31 02:47:08;;;;;;;6.07;2.53;;;;;;;12.82;100.00;101177.56;6151617;23;20016;-88
2021/12/31 02:49:40;;;;;;;5.38;2.50;;;;;;;12.80;100.00;101185.81;6151212;23;20465;-87
2021/12/31 02:52:12;;;;;;;7.43;2.72;;;;;;;12.79;100.00;101170.66;6200067;23;20103;-88
2021/12/31 02:54:43;;;;;;;5.50;2.20;;;;;;;12.82;100.00;101180.25;6179015;23;20123;-88
2021/12/31 02:57:09;;;;;;;7.20;2.40;;;;;;;12.81;100.00;101163.25;6151422;23;20016;-87
2021/12/31 02:59:35;;;;;;;6.32;2.38;;;;;;;12.81;100.00;101165.94;6150454;23;20016;-88
2021/12/31 03:02:03;;;;;;;7.68;2.70;;;;;;;12.83;100.00;101187.31;6175797;23;20364;-88
2021/12/31 03:04:36;;;;;;;9.18;2.70;;;;;;;12.82;100.00;101181.09;6205503;23;20008;-88
2021/12/31 03:07:04;;;;;;;6.75;2.55;;;;;;;12.81;100.00;101179.41;6201645;23;20020;-87
2021/12/31 03:09:33;;;;;;;5.53;2.20;;;;;;;12.81;100.00;101176.72;6179481;23;20016;-87
2021/12/31 03:12:00;;;;;;;5.47;2.35;;;;;;;12.80;100.00;101174.19;6152503;23;20024;-87
2021/12/31 03:14:28;;;;;;;6.13;2.47;;;;;;;12.78;100.00;101171.69;6179031;23;20462;-87
2021/12/31 03:16:54;;;;;;;4.75;2.38;;;;;;;12.79;100.00;101177.91;6179959;23;20027;-86
2021/12/31 03:19:20;;;;;;;5.70;2.50;;;;;;;12.82;100.00;101173.00;6127519;23;20383;-88
2021/12/31 03:21:47;;;;;;;7.20;2.35;;;;;;;12.83;100.00;101174.72;6178116;23;20023;-88
2021/12/31 03:24:12;;;;;;;6.97;3.03;;;;;;;12.87;100.00;101167.13;6177430;23;20027;-87
2021/12/31 03:26:38;;;;;;;4.30;2.30;;;;;;;12.86;100.00;101168.97;6178822;23;20024;-87
2021/12/31 03:29:03;;;;;;;4.18;2.08;;;;;;;12.89;100.00;101165.13;6177963;23;20020;-87
2021/12/31 03:31:29;;;;;;;5.22;2.50;;;;;;;12.91;100.00;101165.75;6151981;23;20024;-88
2021/12/31 03:33:55;;;;;;;6.45;2.47;;;;;;;12.86;100.00;101168.97;6179700;23;20071;-88
2021/12/31 03:36:20;;;;;;;6.07;2.35;;;;;;;12.88;100.00;101166.94;6202299;23;20048;-87
2021/12/31 03:38:46;;;;;;;3.35;2.00;;;;;;;12.85;100.00;101159.19;6182492;23;20482;-86
2021/12/31 03:41:11;;;;;;;6.75;2.28;;;;;;;12.87;100.00;101159.88;6181608;23;20019;-87
2021/12/31 03:43:37;;;;;;;4.97;2.45;;;;;;;12.85;100.00;101167.28;6209290;23;20102;-87
2021/12/31 03:46:03;;;;;;;6.80;2.47;;;;;;;12.84;100.00;101170.16;6206106;23;20027;-86
2021/12/31 03:48:28;;;;;;;6.50;2.25;;;;;;;12.84;100.00;101165.59;6209281;23;20047;-87
2021/12/31 03:50:54;;;;;;;5.03;2.40;;;;;;;12.80;100.00;101166.97;6207030;23;20058;-88
2021/12/31 03:53:19;;;;;;;7.90;2.28;;;;;;;12.80;100.00;101168.81;6205933;23;20017;-87
2021/12/31 03:55:46;;;;;;;5.68;2.45;;;;;;;12.79;100.00;101159.06;6209229;23;20024;-88
2021/12/31 03:58:11;;;;;;;6.20;2.30;;;;;;;12.77;100.00;101159.22;6181630;23;20047;-86
2021/12/31 04:00:37;;;;;;;7.95;2.30;;;;;;;12.77;100.00;101153.81;6209006;23;20025;-87
2021/12/31 04:03:10;;;;;;;5.10;2.10;;;;;;;12.78;100.00;101155.53;6208377;23;20147;-87
2021/12/31 04:05:38;;;;;;;7.47;2.53;;;;;;;12.76;100.00;101157.53;6161194;23;20020;-88
2021/12/31 04:08:04;;;;;;;6.50;2.60;;;;;;;12.76;100.00;101157.53;6158616;23;20012;-87
2021/12/31 04:10:30;;;;;;;5.57;2.42;;;;;;;12.74;100.00;101159.53;6208449;23;20039;-87
2021/12/31 04:12:55;;;;;;;6.22;2.35;;;;;;;12.75;100.00;101157.72;6181825;23;20013;-87
2021/12/31 04:15:21;;;;;;;5.97;2.40;;;;;;;12.74;100.00;101159.53;6181485;23;20020;-87
2021/12/31 04:17:46;;;;;;;5.38;2.17;;;;;;;12.74;100.00;101148.78;6158762;23;20108;-88
2021/12/31 04:20:19;;;;;;;7.72;2.20;;;;;;;12.72;100.00;101155.38;6208830;23;20084;-87
2021/12/31 04:22:53;;;;;;;7.60;2.53;;;;;;;12.70;100.00;101147.44;6159284;23;20024;-87
2021/12/31 04:25:18;;;;;;;8.43;2.75;;;;;;;12.69;100.00;101156.53;6183999;23;20048;-87
2021/12/31 04:27:44;;;;;;;8.40;2.50;;;;;;;12.70;100.00;101142.06;6206526;23;20457;-87
2021/12/31 04:30:10;;;;;;;6.43;2.17;;;;;;;12.69;100.00;101143.09;6181467;23;20075;-87
2021/12/31 04:32:35;;;;;;;9.50;2.55;;;;;;;12.69;100.00;101145.78;6208400;23;20021;-87
2021/12/31 04:35:00;;;;;;;5.35;2.50;;;;;;;12.70;100.00;101147.44;6155446;23;20023;-88
2021/12/31 04:37:26;;;;;;;5.90;3.33;;;;;;;12.71;100.00;101148.28;6206027;23;20236;-88
2021/12/31 04:39:51;;;;;;;6.82;2.53;;;;;;;12.72;100.00;101152.69;6133676;23;20059;-88
2021/12/31 04:42:16;;;;;;;6.25;2.60;;;;;;;12.72;100.00;101161.59;6206686;23;20104;-87
2021/12/31 04:44:42;;;;;;;4.70;2.20;;;;;;;12.72;100.00;101152.69;6184807;23;20454;-88
2021/12/31 04:47:07;;;;;;;6.88;2.13;;;;;;;12.71;100.00;101149.13;6159200;23;20044;-88
2021/12/31 04:49:33;;;;;;;6.68;2.83;;;;;;;12.73;100.00;101146.28;6211162;23;20085;-86
2021/12/31 04:51:58;;;;;;;5.78;2.50;;;;;;;12.74;100.00;101148.78;6184653;23;20016;-86
2021/12/31 04:54:24;;;;;;;8.10;2.78;;;;;;;12.73;100.00;101147.09;6133954;23;20016;-88
2021/12/31 04:56:52;;;;;;;8.50;2.60;;;;;;;12.74;100.00;101148.78;6159633;23;20084;-88
2021/12/31 04:59:19;;;;;;;7.05;2.38;;;;;;;12.73;100.00;101140.88;6160442;23;20484;-86
2021/12/31 05:01:44;;;;;;;9.02;2.30;;;;;;;12.74;100.00;101143.38;6209972;23;20078;-87
2021/12/31 05:04:10;;;;;;;6.45;2.05;;;;;;;12.74;100.00;101148.78;6184007;23;20016;-87
2021/12/31 05:06:37;;;;;;;5.32;2.47;;;;;;;12.75;100.00;101145.09;6184466;23;20067;-87
2021/12/31 05:09:02;;;;;;;7.55;2.75;;;;;;;12.75;100.00;101139.72;6156678;23;20086;-87
2021/12/31 05:11:28;;;;;;;6.35;2.17;;;;;;;12.77;100.00;101139.53;6210931;23;20452;-86
2021/12/31 05:13:53;;;;;;;6.15;2.38;;;;;;;12.76;100.00;101146.75;6182688;23;20041;-87
2021/12/31 05:16:19;;;;;;;7.60;2.72;;;;;;;12.73;100.00;101144.41;6183037;23;20062;-87
2021/12/31 05:18:44;;;;;;;5.18;2.55;;;;;;;12.74;100.00;101153.31;6184827;23;20025;-86
2021/12/31 05:21:09;;;;;;;7.90;2.60;;;;;;;12.75;100.00;101147.78;6158251;23;20017;-87
2021/12/31 05:23:35;;;;;;;7.68;2.78;;;;;;;12.76;100.00;101127.91;6158669;23;20024;-87
2021/12/31 05:26:00;;;;;;;9.80;2.58;;;;;;;12.76;100.00;101141.38;6159416;23;20351;-86
2021/12/31 05:28:25;;;;;;;3.83;2.40;;;;;;;12.79;100.00;101143.72;6134253;23;20103;-87
2021/12/31 05:30:51;;;;;;;4.20;2.15;;;;;;;12.78;100.00;101133.97;6158665;23;20012;-87
2021/12/31 05:33:16;;;;;;;7.57;2.55;;;;;;;12.78;100.00;101149.31;6134087;23;20021;-87
2021/12/31 05:35:41;;;;;;;4.07;2.22;;;;;;;12.77;100.00;101136.81;6159009;23;20013;-87
2021/12/31 05:38:07;;;;;;;5.20;2.90;;;;;;;12.77;100.00;101137.66;6133923;23;20131;-86
2021/12/31 05:40:34;;;;;;;7.10;2.60;;;;;;;12.77;100.00;101124.19;6183642;23;20040;-87
2021/12/31 05:42:59;;;;;;;5.15;2.22;;;;;;;12.79;100.00;101130.25;6160135;23;20017;-87
2021/12/31 05:45:25;;;;;;;4.97;2.80;;;;;;;12.81;100.00;101130.94;6182857;23;20028;-87
2021/12/31 05:47:51;;;;;;;5.90;2.55;;;;;;;12.81;100.00;101136.31;6211270;23;20521;-86
2021/12/31 05:50:28;;;;;;;8.13;2.90;;;;;;;12.81;100.00;101114.78;6177583;23;20372;-86
2021/12/31 05:52:57;;;;;;;6.55;2.83;;;;;;;12.81;100.00;101116.63;6186113;23;20023;-86
2021/12/31 05:55:23;;;;;;;7.43;2.30;;;;;;;12.79;100.00;101124.03;6183137;23;20016;-86
2021/12/31 05:57:49;;;;;;;5.93;2.25;;;;;;;12.79;100.00;101122.19;6184429;23;20485;-86
2021/12/31 06:00:15;;;;;;;6.32;3.00;;;;;;;12.78;100.00;101112.44;6208042;23;20020;-86
2021/12/31 06:02:41;;;;;;;5.00;2.72;;;;;;;12.77;100.00;101112.59;6206718;23;20020;-86
2021/12/31 06:05:07;;;;;;;5.97;2.72;;;;;;;12.78;100.00;101100.81;6177946;23;20027;-86
2021/12/31 06:07:32;;;;;;;9.65;3.33;;;;;;;12.79;100.00;101110.56;6179793;23;20047;-87
2021/12/31 06:09:57;;;;;;;5.80;2.47;;;;;;;12.77;100.00;101110.72;6178779;23;20036;-86
2021/12/31 06:12:24;;;;;;;5.95;3.08;;;;;;;12.79;100.00;101108.72;6180983;23;20043;-86
2021/12/31 06:14:50;;;;;;;7.93;2.92;;;;;;;12.79;100.00;101103.34;6209238;23;20019;-87
2021/12/31 06:17:22;;;;;;;8.82;3.28;;;;;;;12.79;100.00;101100.63;6208659;23;20021;-87
2021/12/31 06:19:47;;;;;;;5.72;2.75;;;;;;;12.77;100.00;101104.50;6158866;23;20021;-86
2021/12/31 06:22:13;;;;;;;5.43;2.78;;;;;;;12.76;100.00;101090.22;6178886;23;20023;-87
2021/12/31 06:24:39;;;;;;;7.10;2.97;;;;;;;12.77;100.00;101097.25;6203077;23;20036;-86
2021/12/31 06:27:07;;;;;;;6.57;2.53;;;;;;;12.77;100.00;101102.66;6152185;23;20024;-87
2021/12/31 06:29:32;;;;;;;6.35;2.90;;;;;;;12.76;100.00;101100.97;6177899;23;20013;-86
2021/12/31 06:31:57;;;;;;;5.57;3.05;;;;;;;12.76;100.00;101102.84;6208392;23;20027;-87
2021/12/31 06:34:23;;;;;;;5.72;2.95;;;;;;;12.74;100.00;101113.75;6208765;23;20662;-86
2021/12/31 06:36:48;;;;;;;8.15;3.25;;;;;;;12.74;100.00;101121.84;6181354;23;20052;-87
2021/12/31 06:39:13;;;;;;;4.97;3.13;;;;;;;12.72;100.00;101114.97;6155125;23;20493;-87
2021/12/31 06:41:39;;;;;;;6.50;2.90;;;;;;;12.71;100.00;101124.03;6181476;23;20071;-87
2021/12/31 06:44:05;;;;;;;7.55;3.00;;;;;;;12.69;100.00;101118.84;6177669;23;20028;-87
2021/12/31 06:46:30;;;;;;;5.05;2.80;;;;;;;12.69;100.00;101117.97;6205094;23;20020;-87
2021/12/31 06:48:55;;;;;;;9.90;3.28;;;;;;;12.70;100.00;101114.31;6202733;23;20047;-87
2021/12/31 06:51:21;;;;;;;5.28;2.63;;;;;;;12.69;100.00;101120.66;6177996;23;20465;-86
2021/12/31 06:53:46;;;;;;;5.60;2.75;;;;;;;12.70;100.00;101117.81;6151751;23;20052;-87
2021/12/31 06:56:11;;;;;;;8.52;3.20;;;;;;;12.70;100.00;101112.44;6204397;23;20447;-86
2021/12/31 06:58:37;;;;;;;6.07;2.85;;;;;;;12.68;100.00;101101.00;6153867;23;20031;-87
2021/12/31 07:01:03;;;;;;;5.95;2.85;;;;;;;12.68;100.00;101090.22;6126980;23;20096;-88
2021/12/31 07:03:28;;;;;;;5.75;3.17;;;;;;;12.66;100.00;101108.41;6177170;23;20027;-87
2021/12/31 07:05:54;;;;;;;5.78;2.83;;;;;;;12.66;100.00;101073.41;6178698;23;20028;-86
2021/12/31 07:08:19;;;;;;;7.68;2.85;;;;;;;12.63;100.00;101090.75;6150509;23;20023;-86
2021/12/31 07:10:45;;;;;;;8.40;3.00;;;;;;;12.63;100.00;101111.47;6152144;23;20123;-86
2021/12/31 07:13:11;;;;;;;7.32;2.80;;;;;;;12.63;100.00;101092.59;6177771;23;20024;-87
2021/12/31 07:15:41;;;;;;;5.22;2.80;;;;;;;12.63;100.00;101090.75;6152923;23;20439;-86
2021/12/31 07:18:07;;;;;;;6.18;2.20;;;;;;;12.62;100.00;101080.13;6153880;23;20079;-86
2021/12/31 07:20:34;;;;;;;5.07;2.40;;;;;;;12.63;100.00;101108.75;6177768;23;20025;-86
2021/12/31 07:23:09;;;;;;;5.72;2.30;;;;;;;12.61;100.00;101100.00;6177847;23;20021;-86
2021/12/31 07:25:38;;;;;;;7.30;2.60;;;;;;;12.61;100.00;101073.91;6176800;23;20018;-86
2021/12/31 07:28:03;;;;;;;6.13;2.22;;;;;;;12.58;100.00;101068.03;6154237;23;20048;-86
2021/12/31 07:30:29;;;;;;;6.55;2.65;;;;;;;12.56;100.00;101070.06;6151530;23;20401;-87
2021/12/31 07:32:54;;;;;;;6.78;2.75;;;;;;;12.51;100.00;101061.66;6203064;23;20029;-87
2021/12/31 07:35:21;;;;;;;6.50;2.58;;;;;;;12.51;100.00;101067.03;6199526;23;20451;-86
2021/12/31 07:37:46;;;;;;;4.90;2.38;;;;;;;12.50;100.00;101055.44;6153680;23;20481;-87
2021/12/31 07:40:12;;;;;;;6.45;3.00;;;;;;;12.46;100.00;101047.84;6187982;23;20087;-87
2021/12/31 07:42:39;;;;;;;4.00;2.55;;;;;;;12.45;100.00;101083.84;6205760;23;20021;-86
2021/12/31 07:45:08;;;;;;;5.55;2.65;;;;;;;12.39;100.00;101051.22;6198709;23;20098;-86
2021/12/31 07:47:33;;;;;;;5.60;2.25;;;;;;;12.39;100.00;101080.81;6150963;23;20346;-86
2021/12/31 07:49:59;;;;;;;4.95;2.03;;;;;;;12.35;100.00;101079.50;6203540;23;20084;-86
2021/12/31 07:52:24;;;;;;;7.40;3.10;;;;;;;12.35;100.00;101079.50;6175434;23;20348;-86
2021/12/31 07:54:50;;;;;;;7.47;2.60;;;;;;;12.34;100.00;101085.91;6202149;23;20511;-86
2021/12/31 07:57:15;;;;;;;6.90;2.50;;;;;;;12.34;100.00;101077.81;6160810;23;20546;-88
2021/12/31 07:59:41;;;;;;;8.63;3.08;;;;;;;12.32;100.00;101079.84;6177615;23;20017;-89
2021/12/31 08:02:07;;;;;;;4.25;2.47;;;;;;;12.29;100.00;101100.88;6164053;23;20062;-88
2021/12/31 08:04:34;;;;;;;7.25;2.42;;;;;;;12.26;100.00;101095.81;6176899;23;20343;-87
2021/12/31 08:07:00;;;;;;;6.32;2.42;;;;;;;12.27;100.00;101097.50;6203186;23;20452;-89
2021/12/31 08:09:25;;;;;;;6.50;2.13;;;;;;;12.25;100.00;101094.13;6202144;23;20021;-88
2021/12/31 08:11:52;;;;;;;6.22;2.58;;;;;;;12.25;100.00;101111.09;6177551;23;20050;-88
2021/12/31 08:14:17;;;;;;;4.55;2.42;;;;;;;12.21;100.00;101096.31;6180266;23;20128;-87
2021/12/31 08:16:44;;;;;;;6.03;2.20;;;;;;;12.15;100.00;101113.97;6208612;23;20017;-87
2021/12/31 08:19:09;;;;;;;8.05;2.80;;;;;;;12.16;100.00;101115.63;6158573;23;20016;-87
2021/12/31 08:21:34;;;;;;;5.82;2.53;;;;;;;12.14;100.00;101124.88;6210805;23;20078;-87
2021/12/31 08:24:00;;;;;;;5.28;2.20;;;;;;;12.12;100.00;101121.53;6184346;23;20063;-88
2021/12/31 08:26:25;;;;;;;5.10;2.78;;;;;;;12.12;100.00;101132.28;6134247;23;20151;-87
2021/12/31 08:28:50;;;;;;;5.28;2.70;;;;;;;12.12;100.00;101132.28;6183712;23;20092;-87
2021/12/31 08:31:16;;;;;;;5.05;2.63;;;;;;;12.09;100.00;101129.94;6209479;23;20317;-88
2021/12/31 08:33:41;;;;;;;6.15;2.47;;;;;;;12.10;100.00;101140.50;6211718;23;20475;-88
2021/12/31 08:36:10;;;;;;;5.30;2.30;;;;;;;12.11;100.00;101138.66;6184330;23;20020;-87
2021/12/31 08:38:35;;;;;;;5.60;2.65;;;;;;;12.13;100.00;101136.66;6158716;23;20387;-88
2021/12/31 08:41:01;;;;;;;5.63;2.95;;;;;;;12.12;100.00;101151.13;6183653;23;20016;-87
2021/12/31 08:43:27;;;;;;;5.75;2.17;;;;;;;12.10;100.00;101137.81;6210101;23;20013;-87
2021/12/31 08:45:53;;;;;;;5.93;2.67;;;;;;;12.10;100.00;101129.75;6184226;23;20024;-87
2021/12/31 08:48:19;;;;;;;4.40;2.50;;;;;;;12.10;100.00;101127.06;6208418;23;20359;-87
2021/12/31 08:50:45;;;;;;;6.95;2.30;;;;;;;12.10;100.00;101127.06;6158122;23;20024;-87
2021/12/31 08:53:13;;;;;;;4.75;2.58;;;;;;;12.11;100.00;101139.53;6158447;23;20451;-87
2021/12/31 08:55:38;;;;;;;6.22;2.78;;;;;;;12.06;100.00;101143.72;6209457;23;20016;-87
2021/12/31 08:58:05;;;;;;;5.68;2.50;;;;;;;12.07;100.00;101134.63;6211473;23;20055;-87
2021/12/31 09:00:30;;;;;;;4.90;2.22;;;;;;;12.07;100.00;101157.00;6182929;23;20016;-87
2021/12/31 09:02:56;;;;;;;6.80;2.70;;;;;;;12.08;100.00;101128.25;6209373;23;20086;-87
2021/12/31 09:05:22;;;;;;;5.53;2.67;;;;;;;12.09;100.00;101138.84;6210036;23;20032;-87
2021/12/31 09:07:49;;;;;;;4.63;2.30;;;;;;;12.06;100.00;101141.88;6211330;23;20036;-86
2021/12/31 09:10:15;;;;;;;5.40;2.65;;;;;;;12.07;100.00;101142.69;6180658;23;20163;-86
2021/12/31 09:12:44;;;;;;;5.68;2.60;;;;;;;12.09;100.00;101135.31;6158712;23;20047;-86
2021/12/31 09:15:10;;;;;;;6.50;2.53;;;;;;;12.08;100.00;101136.31;6208950;23;20490;-86
2021/12/31 09:17:35;;;;;;;4.63;2.42;;;;;;;12.07;100.00;101157.00;6209488;23;20024;-86
2021/12/31 09:20:01;;;;;;;6.90;2.63;;;;;;;12.07;100.00;101156.16;6158935;23;20355;-86
2021/12/31 09:22:27;;;;;;;5.05;3.05;;;;;;;12.07;100.00;101145.41;6206247;23;20024;-87
2021/12/31 09:24:52;;;;;;;6.88;2.80;;;;;;;12.06;100.00;101141.03;6210860;23;20013;-87
2021/12/31 09:27:18;;;;;;;7.40;2.70;;;;;;;12.06;100.00;101149.09;6178715;23;20023;-86
2021/12/31 09:29:44;;;;;;;6.10;2.47;;;;;;;12.06;100.00;101144.56;6152413;23;20096;-87
2021/12/31 09:32:10;;;;;;;7.10;2.28;;;;;;;12.07;100.00;101153.47;6151470;23;20104;-86
2021/12/31 09:34:35;;;;;;;5.82;2.65;;;;;;;12.09;100.00;101159.53;6152704;23;20025;-87
2021/12/31 09:37:01;;;;;;;4.72;2.65;;;;;;;12.09;100.00;101156.84;6140753;23;20403;-87
2021/12/31 09:39:26;;;;;;;5.45;2.20;;;;;;;12.08;100.00;101147.06;6080596;23;20018;-86
2021/12/31 09:41:51;;;;;;;5.47;2.55;;;;;;;12.11;100.00;101146.72;6107771;23;20022;-86
2021/12/31 09:44:20;;;;;;;6.72;2.53;;;;;;;12.10;100.00;101139.69;6081620;23;20089;-87
2021/12/31 09:46:45;;;;;;;6.18;2.78;;;;;;;12.11;100.00;101133.28;6081957;23;20022;-86
2021/12/31 09:49:11;;;;;;;4.78;2.50;;;;;;;12.13;100.00;101142.03;6022005;23;20076;-87
2021/12/31 09:51:41;;;;;;;8.30;2.53;;;;;;;12.13;100.00;101128.59;6083652;23;20448;-87
2021/12/31 09:54:07;;;;;;;7.75;3.05;;;;;;;12.13;100.00;101159.00;6063016;23;20082;-87
2021/12/31 09:56:39;;;;;;;6.90;2.65;;;;;;;12.14;100.00;101157.16;6019219;23;20030;-86
2021/12/31 09:59:08;;;;;;;4.78;2.55;;;;;;;12.14;100.00;101187.63;6010530;23;20517;-86
2021/12/31 10:01:42;;;;;;;6.07;2.63;;;;;;;12.15;100.00;101169.63;6075190;23;20055;-86
2021/12/31 10:04:08;;;;;;;6.38;2.35;;;;;;;12.16;100.00;101168.59;6119955;23;20021;-86
2021/12/31 10:06:33;;;;;;;4.93;2.45;;;;;;;12.16;100.00;101166.75;6123026;23;20022;-87
2021/12/31 10:09:02;;;;;;;4.95;2.33;;;;;;;12.15;100.00;101148.09;6099485;23;20076;-86
2021/12/31 10:11:28;;;;;;;;;;;;;;;12.14;100.00;101146.41;6147662;23;20009;-86
2021/12/31 10:13:58;;;;;;;3.50;2.20;;;;;;;12.09;100.00;101149.59;6123283;23;19913;-86
2021/12/31 10:16:26;;;;;;;4.00;2.10;;;;;;;12.12;100.00;101137.69;6097225;23;20061;-86
2021/12/31 10:19:14;;;;;;;3.70;2.15;;;;;;;12.16;100.00;101149.78;6122548;23;20168;-86
2021/12/31 10:21:49;;;;;;;5.07;2.30;;;;;;;12.17;100.00;101151.47;6148106;23;20112;-86
2021/12/31 10:24:35;;;;;;;4.20;2.60;;;;;;;12.19;100.00;101170.97;6125768;23;20021;-86
2021/12/31 10:27:14;;;;;;;5.00;2.65;;;;;;;12.19;100.00;101160.19;6156098;23;20115;-86
2021/12/31 10:30:00;;;;;;;;;;;;;;;12.19;100.00;101150.28;6185863;23;20019;-86
2021/12/31 10:32:30;;;;;;;4.97;2.50;;;;;;;12.13;100.00;101183.22;6209373;23;19942;-86
2021/12/31 10:35:10;;;;;;;6.25;2.63;;;;;;;12.17;100.00;101199.91;6182175;23;20470;-86
2021/12/31 10:37:46;;;;;;;5.85;3.00;;;;;;;12.19;100.00;101155.66;6133842;23;20016;-86
2021/12/31 10:40:26;;;;;;;3.80;2.55;;;;;;;12.18;100.00;101174.66;6183393;23;20022;-86
2021/12/31 10:43:16;;;;;;;5.68;2.75;;;;;;;12.19;100.00;101181.72;6136240;23;20027;-86
2021/12/31 10:46:07;;;;;;;7.78;3.20;;;;;;;12.21;100.00;101168.97;6210015;23;20386;-86
2021/12/31 10:48:41;;;;;;;5.28;2.50;;;;;;;12.19;100.00;101170.97;6182108;23;20043;-86
2021/12/31 10:51:08;;;;;;;4.72;2.75;;;;;;;12.19;100.00;101176.34;6181629;23;20024;-86
2021/12/31 10:53:34;;;;;;;5.57;2.80;;;;;;;12.18;100.00;101166.59;6168330;23;20073;-89
2021/12/31 10:56:06;;;;;;;5.65;2.63;;;;;;;12.18;100.00;101153.16;6153062;23;20020;-87
2021/12/31 10:58:33;;;;;;;6.38;3.05;;;;;;;12.17;100.00;101146.09;6188332;23;20340;-87
2021/12/31 11:00:59;;;;;;;4.78;2.53;;;;;;;12.16;100.00;101165.91;6126451;23;20020;-86
2021/12/31 11:03:25;;;;;;;7.90;3.72;;;;;;;12.17;100.00;101148.78;6149076;23;20336;-87
2021/12/31 11:05:56;;;;;;;5.97;3.67;;;;;;;12.12;100.00;101133.13;6190401;23;20036;-86
2021/12/31 11:08:22;;;;;;;5.53;3.00;;;;;;;12.12;100.00;101122.38;6163581;23;20505;-86
2021/12/31 11:10:50;;;;;;;5.95;3.50;;;;;;;12.14;100.00;101132.94;6164349;23;20022;-87
2021/12/31 11:13:21;;;;;;;6.13;2.85;;;;;;;12.07;100.00;101137.31;6175006;23;20395;-86
2021/12/31 11:15:52;;;;;;;5.13;2.70;;;;;;;12.07;100.00;101123.88;6178042;23;20099;-87
2021/12/31 11:18:23;;;;;;;6.05;3.05;;;;;;;12.05;100.00;101112.44;6179412;23;20024;-86
2021/12/31 11:20:50;;;;;;;5.55;3.15;;;;;;;12.05;100.00;101109.75;6178202;23;20451;-87